createdAt,value
2023-05-19T00:01:48.279Z,13.60
2023-05-19T00:04:15.592Z,14.30
2023-05-19T00:06:42.629Z,13.80
2023-05-19T00:09:10.046Z,13.30
2023-05-19T00:11:37.495Z,14.10
2023-05-19T00:14:05.338Z,13.40
2023-05-19T00:16:32.235Z,14.90
2023-05-19T00:19:00.586Z,15.00
2023-05-19T00:21:27.810Z,13.80
2023-05-19T00:23:54.639Z,14.40
2023-05-19T00:26:23.004Z,13.00
2023-05-19T00:29:01.709Z,13.60
2023-05-19T00:31:28.633Z,13.50
2023-05-19T00:33:55.808Z,14.50
2023-05-19T00:36:22.668Z,16.40
2023-05-19T00:38:51.132Z,15.60
2023-05-19T00:41:17.950Z,15.10
2023-05-19T00:43:44.801Z,14.40
2023-05-19T00:46:11.775Z,14.10
2023-05-19T00:48:38.762Z,14.10
2023-05-19T00:51:06.720Z,13.80
2023-05-19T00:53:33.885Z,12.80
2023-05-19T00:56:00.782Z,12.80
2023-05-19T00:58:30.796Z,12.70
2023-05-19T01:01:04.422Z,12.70
2023-05-19T01:03:32.317Z,13.30
2023-05-19T01:06:01.869Z,14.00
2023-05-19T01:08:29.397Z,13.10
2023-05-19T01:10:56.275Z,11.80
2023-05-19T01:13:23.128Z,13.00
2023-05-19T01:16:07.465Z,12.70
2023-05-19T01:18:40.574Z,11.90
2023-05-19T01:21:07.471Z,13.00
2023-05-19T01:23:41.136Z,12.30
2023-05-19T01:26:16.163Z,11.70
2023-05-19T01:28:46.112Z,10.60
2023-05-19T01:31:12.927Z,11.10
2023-05-19T01:33:39.996Z,12.00
2023-05-19T01:36:06.909Z,11.80
2023-05-19T01:38:33.953Z,11.60
2023-05-19T01:41:01.546Z,11.30
2023-05-19T01:43:28.350Z,11.60
2023-05-19T01:45:55.792Z,11.30
2023-05-19T01:48:22.724Z,10.60
2023-05-19T01:50:49.605Z,10.40
2023-05-19T01:53:16.452Z,9.80
2023-05-19T01:55:44.660Z,10.70
2023-05-19T01:58:14.528Z,10.50
2023-05-19T02:00:41.386Z,9.20
2023-05-19T02:03:08.350Z,9.70
2023-05-19T02:05:36.640Z,9.70
2023-05-19T02:08:09.521Z,9.20
2023-05-19T02:10:36.944Z,9.00
2023-05-19T02:13:04.797Z,9.10
2023-05-19T02:15:35.465Z,8.90
2023-05-19T02:18:04.717Z,8.30
2023-05-19T02:20:32.070Z,8.40
2023-05-19T02:22:59.146Z,8.40
2023-05-19T02:25:25.948Z,7.80
2023-05-19T02:27:52.830Z,7.80
2023-05-19T02:30:19.732Z,8.40
2023-05-19T02:32:47.129Z,7.60
2023-05-19T02:35:14.243Z,7.90
2023-05-19T02:37:41.203Z,7.80
2023-05-19T02:40:08.382Z,8.20
2023-05-19T02:42:35.182Z,8.20
2023-05-19T02:45:01.995Z,8.30
2023-05-19T02:47:29.151Z,8.10
2023-05-19T02:49:55.969Z,7.60
2023-05-19T02:52:22.840Z,7.50
2023-05-19T02:54:49.716Z,7.60
2023-05-19T02:57:16.628Z,7.50
2023-05-19T02:59:43.589Z,7.80
2023-05-19T03:02:10.938Z,7.90
2023-05-19T03:04:41.829Z,8.10
2023-05-19T03:07:10.326Z,7.80
2023-05-19T03:09:38.018Z,8.30
2023-05-19T03:12:06.730Z,8.30
2023-05-19T03:14:34.374Z,7.30
2023-05-19T03:17:02.021Z,7.90
2023-05-19T03:19:29.324Z,6.30
2023-05-19T03:21:56.677Z,7.00
2023-05-19T03:24:23.549Z,8.00
2023-05-19T03:26:50.925Z,7.50
2023-05-19T03:29:18.330Z,7.80
2023-05-19T03:31:45.638Z,7.80
2023-05-19T03:34:13.238Z,7.30
2023-05-19T03:36:40.243Z,8.40
2023-05-19T03:39:11.281Z,8.10
2023-05-19T03:41:38.229Z,7.80
2023-05-19T03:44:05.168Z,6.90
2023-05-19T03:46:32.554Z,7.40
2023-05-19T03:49:38.055Z,6.80
2023-05-19T03:52:05.041Z,7.70
2023-05-19T03:54:46.293Z,7.80
2023-05-19T03:57:13.837Z,7.40
2023-05-19T03:59:41.621Z,6.90
2023-05-19T04:02:08.650Z,7.70
2023-05-19T04:04:35.906Z,6.40
2023-05-19T04:07:02.921Z,7.20
2023-05-19T04:09:32.116Z,6.80
2023-05-19T04:11:58.982Z,7.00
2023-05-19T04:14:25.970Z,7.20
2023-05-19T04:16:54.135Z,7.20
2023-05-19T04:19:21.090Z,7.10
2023-05-19T04:21:48.008Z,6.80
2023-05-19T04:24:14.942Z,7.30
2023-05-19T04:26:46.115Z,6.90
2023-05-19T04:29:14.110Z,7.10
2023-05-19T04:31:41.429Z,5.90
2023-05-19T04:34:08.296Z,6.10
2023-05-19T04:36:35.263Z,6.10
2023-05-19T04:39:03.995Z,7.40
2023-05-19T04:41:31.045Z,7.40
2023-05-19T04:43:58.500Z,6.60
2023-05-19T04:46:26.383Z,6.90
2023-05-19T04:48:57.329Z,7.10
2023-05-19T04:51:30.297Z,7.40
2023-05-19T04:53:59.447Z,7.00
2023-05-19T04:56:27.650Z,6.00
2023-05-19T04:58:55.522Z,6.00
2023-05-19T05:01:26.495Z,5.40
2023-05-19T05:03:59.320Z,6.30
2023-05-19T05:06:26.777Z,5.90
2023-05-19T05:08:53.644Z,6.60
2023-05-19T05:11:20.841Z,6.60
2023-05-19T05:17:25.172Z,5.50
2023-05-19T05:19:52.303Z,6.00
2023-05-19T05:22:19.332Z,5.80
2023-05-19T05:24:46.107Z,6.40
2023-05-19T05:27:13.187Z,5.90
2023-05-19T05:29:39.999Z,7.20
2023-05-19T05:32:07.503Z,6.30
2023-05-19T05:34:37.050Z,6.70
2023-05-19T05:37:04.881Z,7.20
2023-05-19T05:39:32.433Z,5.90
2023-05-19T05:42:00.462Z,6.40
2023-05-19T05:44:27.349Z,6.00
2023-05-19T05:46:55.157Z,5.80
2023-05-19T05:49:21.989Z,6.30
2023-05-19T05:52:04.414Z,5.80
2023-05-19T05:54:34.980Z,6.60
2023-05-19T05:57:02.970Z,6.40
2023-05-19T05:59:30.237Z,6.30
2023-05-19T06:01:56.905Z,6.00
2023-05-19T06:04:25.209Z,5.90
2023-05-19T06:06:52.127Z,6.10
2023-05-19T06:09:21.804Z,5.40
2023-05-19T06:11:48.773Z,6.00
2023-05-19T06:14:15.676Z,6.50
2023-05-19T06:17:00.815Z,7.30
2023-05-19T06:19:29.637Z,6.10
2023-05-19T06:21:56.320Z,7.20
2023-05-19T06:24:23.013Z,6.00
2023-05-19T06:26:49.988Z,6.10
2023-05-19T06:29:16.830Z,6.30
2023-05-19T06:31:44.280Z,6.50
2023-05-19T06:34:17.029Z,6.30
2023-05-19T06:36:44.314Z,6.20
2023-05-19T06:39:11.273Z,6.30
2023-05-19T06:41:38.457Z,7.10
2023-05-19T06:44:06.775Z,6.80
2023-05-19T06:46:33.607Z,5.70
2023-05-19T06:49:00.484Z,7.00
2023-05-19T06:51:28.991Z,6.10
2023-05-19T06:53:56.323Z,6.70
2023-05-19T06:56:23.337Z,6.30
2023-05-19T06:58:50.033Z,6.80
2023-05-19T07:01:18.005Z,6.20
2023-05-19T07:03:48.529Z,6.80
2023-05-19T07:06:16.343Z,6.20
2023-05-19T07:08:43.538Z,6.90
2023-05-19T07:11:11.983Z,6.80
2023-05-19T07:13:39.453Z,7.30
2023-05-19T07:16:06.170Z,6.10
2023-05-19T07:18:33.696Z,6.40
2023-05-19T07:21:00.346Z,5.90
2023-05-19T07:23:27.612Z,6.30
2023-05-19T07:25:55.818Z,6.00
2023-05-19T07:28:22.523Z,6.00
2023-05-19T07:30:49.344Z,6.00
2023-05-19T07:33:16.181Z,6.80
2023-05-19T07:35:43.908Z,5.70
2023-05-19T07:38:11.578Z,6.20
2023-05-19T07:40:39.115Z,6.90
2023-05-19T07:43:13.135Z,6.50
2023-05-19T07:45:40.050Z,6.60
2023-05-19T07:48:07.300Z,7.20
2023-05-19T07:50:34.272Z,6.50
2023-05-19T07:53:01.039Z,6.70
2023-05-19T07:55:27.698Z,7.30
2023-05-19T07:57:54.484Z,6.50
2023-05-19T08:00:22.118Z,6.90
2023-05-19T08:02:49.076Z,6.40
2023-05-19T08:05:16.161Z,6.40
2023-05-19T08:07:42.879Z,6.50
2023-05-19T08:10:09.632Z,7.30
2023-05-19T08:12:36.841Z,7.00
2023-05-19T08:15:03.829Z,6.70
2023-05-19T08:17:30.698Z,7.00
2023-05-19T08:19:57.335Z,6.90
2023-05-19T08:22:23.923Z,6.30
2023-05-19T08:24:51.351Z,6.80
2023-05-19T08:27:18.865Z,6.70
2023-05-19T08:29:45.744Z,5.90
2023-05-19T08:32:13.487Z,6.90
2023-05-19T08:34:40.784Z,6.80
2023-05-19T08:37:07.357Z,6.50
2023-05-19T08:39:36.119Z,6.00
2023-05-19T08:42:02.922Z,6.10
2023-05-19T08:44:30.636Z,6.20
2023-05-19T08:46:57.727Z,6.20
2023-05-19T08:49:27.381Z,6.30
2023-05-19T08:52:02.941Z,6.30
2023-05-19T08:54:33.133Z,7.30
2023-05-19T08:56:59.984Z,6.10
2023-05-19T08:59:26.908Z,6.40
2023-05-19T09:01:54.293Z,6.30
2023-05-19T09:04:21.670Z,6.40
2023-05-19T09:06:49.726Z,6.10
2023-05-19T09:09:16.843Z,6.30
2023-05-19T09:11:46.366Z,6.40
2023-05-19T09:14:13.271Z,6.40
2023-05-19T09:16:40.591Z,6.80
2023-05-19T09:19:12.628Z,7.20
2023-05-19T09:21:40.809Z,6.20
2023-05-19T09:24:08.737Z,7.50
2023-05-19T09:26:36.927Z,6.70
2023-05-19T09:29:10.231Z,7.20
2023-05-19T09:31:37.085Z,7.00
2023-05-19T09:34:03.756Z,7.10
2023-05-19T09:36:30.800Z,7.10
2023-05-19T09:38:57.505Z,6.50
2023-05-19T09:41:25.812Z,6.90
2023-05-19T09:43:59.535Z,6.50
2023-05-19T09:46:27.775Z,6.90
2023-05-19T09:48:58.156Z,6.20
2023-05-19T09:51:25.071Z,7.30
2023-05-19T09:53:52.184Z,6.80
2023-05-19T09:56:23.216Z,6.90
2023-05-19T09:58:49.934Z,7.40
2023-05-19T10:01:16.602Z,7.30
2023-05-19T10:03:43.274Z,7.40
2023-05-19T10:06:10.233Z,7.80
2023-05-19T10:08:36.943Z,7.30
2023-05-19T10:11:03.746Z,7.70
2023-05-19T10:13:31.588Z,7.10
2023-05-19T10:15:59.636Z,7.40
2023-05-19T10:18:28.754Z,7.30
2023-05-19T10:20:55.410Z,7.80
2023-05-19T10:23:23.556Z,7.90
2023-05-19T10:25:50.973Z,8.70
2023-05-19T10:28:19.946Z,9.30
2023-05-19T10:30:47.483Z,9.10
2023-05-19T10:33:18.343Z,9.10
2023-05-19T10:35:57.502Z,6.90
2023-05-19T10:38:31.949Z,6.60
2023-05-19T10:41:04.691Z,7.80
2023-05-19T10:43:35.151Z,6.80
2023-05-19T10:46:03.029Z,9.30
2023-05-19T10:48:32.454Z,7.50
2023-05-19T10:50:59.097Z,7.70
2023-05-19T10:53:30.556Z,7.00
2023-05-19T10:55:59.629Z,6.60
2023-05-19T10:58:39.250Z,6.70
2023-05-19T11:01:12.218Z,7.60
2023-05-19T11:03:48.975Z,7.20
2023-05-19T11:06:28.990Z,6.70
2023-05-19T11:09:04.495Z,6.80
2023-05-19T11:11:47.374Z,6.80
2023-05-19T11:14:15.450Z,7.90
2023-05-19T11:16:42.763Z,6.50
2023-05-19T11:19:16.571Z,6.20
2023-05-19T11:21:55.570Z,5.90
2023-05-19T11:24:35.489Z,6.10
2023-05-19T11:27:21.028Z,6.70
2023-05-19T11:29:47.922Z,5.90
2023-05-19T11:32:14.939Z,5.70
2023-05-19T11:34:43.353Z,6.50
2023-05-19T11:37:10.274Z,6.00
2023-05-19T11:39:36.868Z,5.30
2023-05-19T11:42:03.686Z,6.10
2023-05-19T11:44:31.090Z,5.70
2023-05-19T11:47:00.922Z,5.30
2023-05-19T11:49:29.695Z,5.20
2023-05-19T11:51:56.816Z,5.10
2023-05-19T11:54:28.572Z,4.90
2023-05-19T11:56:55.205Z,5.30
2023-05-19T11:59:28.842Z,5.10
2023-05-19T12:01:55.501Z,5.10
2023-05-19T12:04:22.145Z,5.40
2023-05-19T12:06:48.886Z,5.60
2023-05-19T12:09:15.812Z,4.80
2023-05-19T12:11:42.459Z,5.30
2023-05-19T12:14:09.103Z,5.40
2023-05-19T12:16:35.863Z,5.40
2023-05-19T12:19:06.085Z,5.20
2023-05-19T12:21:34.281Z,5.40
2023-05-19T12:24:01.157Z,6.50
2023-05-19T12:26:27.848Z,5.70
2023-05-19T12:28:54.937Z,5.30
2023-05-19T12:31:24.555Z,5.50
2023-05-19T12:33:51.294Z,5.40
2023-05-19T12:36:18.426Z,5.80
2023-05-19T12:38:45.347Z,5.50
2023-05-19T12:41:13.256Z,5.40
2023-05-19T12:43:40.050Z,6.00
2023-05-19T12:46:12.696Z,5.40
2023-05-19T12:48:40.540Z,5.80
2023-05-19T12:51:07.335Z,7.00
2023-05-19T12:53:34.296Z,5.60
2023-05-19T12:56:00.999Z,6.00
2023-05-19T12:58:28.265Z,5.00
2023-05-19T13:00:57.740Z,7.30
2023-05-19T13:03:25.292Z,6.50
2023-05-19T13:05:52.102Z,5.10
2023-05-19T13:08:19.695Z,5.50
2023-05-19T13:10:46.794Z,5.20
2023-05-19T13:13:13.655Z,4.80
2023-05-19T13:15:40.840Z,5.30
2023-05-19T13:18:08.334Z,6.20
2023-05-19T13:20:35.798Z,5.90
2023-05-19T13:23:02.919Z,6.10
2023-05-19T13:25:30.960Z,5.10
2023-05-19T13:28:00.566Z,5.10
2023-05-19T13:30:27.510Z,7.40
2023-05-19T13:32:55.335Z,6.30
2023-05-19T13:35:22.246Z,7.30
2023-05-19T13:37:49.124Z,7.60
2023-05-19T13:40:17.267Z,8.20
2023-05-19T13:42:44.607Z,6.80
2023-05-19T13:45:11.312Z,7.50
2023-05-19T13:47:38.222Z,7.60
2023-05-19T13:50:05.272Z,7.30
2023-05-19T13:52:32.278Z,7.70
2023-05-19T13:54:59.027Z,7.50
2023-05-19T13:57:25.904Z,7.50
2023-05-19T14:00:02.632Z,7.40
2023-05-19T14:02:39.194Z,7.40
2023-05-19T14:05:06.808Z,6.80
2023-05-19T14:07:34.331Z,6.40
2023-05-19T14:10:01.541Z,6.10
2023-05-19T14:12:38.037Z,7.20
2023-05-19T14:15:07.063Z,7.70
2023-05-19T14:17:35.093Z,7.30
2023-05-19T14:20:01.867Z,7.80
2023-05-19T14:22:28.824Z,8.80
2023-05-19T14:24:55.491Z,9.90
2023-05-19T14:27:22.964Z,9.50
2023-05-19T14:29:49.919Z,10.60
2023-05-19T14:32:16.985Z,9.60
2023-05-19T14:34:43.703Z,10.50
2023-05-19T14:37:10.738Z,10.40
2023-05-19T14:39:37.954Z,10.10
2023-05-19T14:42:05.044Z,9.90
2023-05-19T14:44:34.852Z,10.40
2023-05-19T14:47:01.836Z,10.10
2023-05-19T14:49:28.506Z,10.70
2023-05-19T14:51:55.534Z,9.80
2023-05-19T14:54:22.128Z,9.50
2023-05-19T14:56:49.064Z,10.00
2023-05-19T14:59:15.739Z,9.70
2023-05-19T15:01:42.526Z,9.70
2023-05-19T15:04:09.399Z,10.20
2023-05-19T15:09:45.174Z,10.10
2023-05-19T15:12:11.952Z,9.50
2023-05-19T15:14:38.818Z,9.60
2023-05-19T15:17:05.695Z,9.70
2023-05-19T15:19:32.774Z,11.10
2023-05-19T15:21:59.687Z,11.70
2023-05-19T15:24:26.679Z,12.40
2023-05-19T15:26:55.412Z,10.60
2023-05-19T15:29:22.248Z,11.10
2023-05-19T15:31:52.244Z,11.00
2023-05-19T15:34:19.501Z,10.50
2023-05-19T15:36:46.701Z,10.50
2023-05-19T15:39:13.691Z,12.30
2023-05-19T15:41:40.651Z,10.40
2023-05-19T15:44:07.529Z,9.80
2023-05-19T15:46:34.366Z,9.20
2023-05-19T15:49:01.367Z,10.10
2023-05-19T15:51:28.178Z,10.20
2023-05-19T15:53:55.011Z,10.80
2023-05-19T15:56:22.705Z,10.50
2023-05-19T15:58:49.716Z,9.50
2023-05-19T16:01:16.886Z,9.70
2023-05-19T16:03:44.409Z,11.10
2023-05-19T16:06:11.371Z,9.40
2023-05-19T16:08:38.319Z,11.30
2023-05-19T16:11:05.177Z,10.50
2023-05-19T16:13:33.728Z,9.30
2023-05-19T16:16:00.887Z,9.80
2023-05-19T16:18:29.452Z,10.00
2023-05-19T16:20:56.618Z,9.90
2023-05-19T16:23:24.917Z,11.20
2023-05-19T16:25:52.491Z,9.40
2023-05-19T16:28:19.533Z,9.50
2023-05-19T16:30:46.446Z,9.90
2023-05-19T16:33:13.767Z,11.10
2023-05-19T16:35:40.693Z,10.30
2023-05-19T16:38:07.660Z,11.10
2023-05-19T16:40:34.903Z,9.90
2023-05-19T16:43:02.121Z,9.70
2023-05-19T16:45:29.029Z,11.20
2023-05-19T16:47:55.984Z,11.80
2023-05-19T16:50:22.848Z,11.80
2023-05-19T16:52:49.680Z,10.80
2023-05-19T16:55:19.872Z,10.50
2023-05-19T16:57:46.980Z,11.00
2023-05-19T17:00:14.406Z,10.00
2023-05-19T17:02:41.394Z,11.30
2023-05-19T17:05:08.664Z,10.60
2023-05-19T17:07:35.464Z,12.00
2023-05-19T17:10:02.292Z,11.40
2023-05-19T17:12:29.126Z,11.40
2023-05-19T17:14:57.206Z,10.60
2023-05-19T17:17:24.122Z,10.00
2023-05-19T17:19:50.966Z,12.70
2023-05-19T17:22:17.805Z,10.90
2023-05-19T17:24:44.760Z,10.90
2023-05-19T17:27:11.651Z,10.40
2023-05-19T17:29:38.675Z,10.20
2023-05-19T17:32:05.626Z,10.10
2023-05-19T17:34:32.685Z,10.00
2023-05-19T17:36:59.562Z,10.50
2023-05-19T17:39:26.487Z,10.70
2023-05-19T17:41:54.010Z,10.70
2023-05-19T17:44:20.827Z,9.40
2023-05-19T17:46:47.814Z,8.80
2023-05-19T17:49:15.589Z,9.20
2023-05-19T17:51:42.671Z,9.80
2023-05-19T17:54:09.672Z,9.30
2023-05-19T17:56:37.609Z,8.30
2023-05-19T17:59:04.854Z,8.60
2023-05-19T18:01:32.406Z,8.50
2023-05-19T18:03:59.505Z,9.00
2023-05-19T18:06:26.971Z,9.00
2023-05-19T18:08:54.836Z,9.50
2023-05-19T18:11:22.850Z,9.80
2023-05-19T18:13:49.730Z,9.10
2023-05-19T18:16:17.003Z,8.70
2023-05-19T18:18:47.107Z,9.40
2023-05-19T18:21:17.989Z,10.00
2023-05-19T18:23:45.506Z,11.00
2023-05-19T18:26:13.257Z,10.70
2023-05-19T18:28:40.600Z,11.80
2023-05-19T18:31:08.993Z,12.20
2023-05-19T18:33:35.967Z,11.80
2023-05-19T18:36:02.963Z,9.50
2023-05-19T18:38:29.816Z,9.20
2023-05-19T18:40:56.941Z,10.50
2023-05-19T18:43:23.843Z,10.80
2023-05-19T18:45:50.853Z,10.60
2023-05-19T18:48:17.768Z,10.20
2023-05-19T18:50:44.892Z,10.70
2023-05-19T18:53:11.890Z,10.60
2023-05-19T18:55:38.750Z,10.40
2023-05-19T18:58:06.275Z,9.60
2023-05-19T19:00:35.577Z,10.40
2023-05-19T19:03:02.811Z,11.00
2023-05-19T19:05:29.774Z,11.30
2023-05-19T19:07:57.814Z,10.90
2023-05-19T19:10:24.708Z,11.60
2023-05-19T19:12:52.376Z,11.30
2023-05-19T19:15:19.179Z,10.90
2023-05-19T19:17:46.422Z,10.10
2023-05-19T19:20:13.454Z,9.90
2023-05-19T19:22:40.596Z,11.20
2023-05-19T19:25:07.685Z,10.40
2023-05-19T19:27:35.762Z,11.00
2023-05-19T19:30:04.634Z,12.60
2023-05-19T19:32:32.672Z,10.90
2023-05-19T19:34:59.622Z,10.20
2023-05-19T19:37:26.451Z,10.50
2023-05-19T19:39:53.367Z,9.90
2023-05-19T19:42:20.441Z,10.70
2023-05-19T19:44:47.332Z,11.50
2023-05-19T19:47:14.208Z,11.20
2023-05-19T19:49:41.525Z,10.90
2023-05-19T19:52:08.309Z,10.50
2023-05-19T19:54:35.238Z,9.90
2023-05-19T19:57:02.142Z,9.10
2023-05-19T19:59:29.422Z,9.90
2023-05-19T20:01:56.839Z,9.50
2023-05-19T20:04:23.908Z,9.90
2023-05-19T20:06:51.136Z,10.50
2023-05-19T20:09:17.975Z,10.40
2023-05-19T20:11:44.921Z,10.00
2023-05-19T20:14:12.149Z,9.10
2023-05-19T20:16:40.658Z,9.00
2023-05-19T20:19:09.187Z,9.10
2023-05-19T20:21:37.084Z,8.70
2023-05-19T20:24:04.027Z,9.90
2023-05-19T20:26:31.646Z,9.80
2023-05-19T20:28:59.261Z,9.50
2023-05-19T20:31:26.277Z,9.00
2023-05-19T20:33:53.192Z,8.60
2023-05-19T20:36:20.100Z,9.30
2023-05-19T20:38:48.064Z,9.70
2023-05-19T20:41:15.092Z,9.10
2023-05-19T20:43:42.080Z,11.90
2023-05-19T20:46:09.115Z,11.90
2023-05-19T20:48:36.365Z,10.30
2023-05-19T20:51:03.360Z,11.10
2023-05-19T20:53:30.227Z,9.70
2023-05-19T20:55:57.030Z,9.20
2023-05-19T20:58:26.906Z,10.30
2023-05-19T21:00:58.060Z,9.50
2023-05-19T21:03:27.206Z,11.00
2023-05-19T21:05:57.369Z,10.70
2023-05-19T21:08:24.711Z,11.90
2023-05-19T21:10:51.689Z,10.70
2023-05-19T21:13:18.751Z,9.50
2023-05-19T21:15:45.712Z,9.80
2023-05-19T21:18:12.726Z,8.20
2023-05-19T21:20:39.825Z,9.70
2023-05-19T21:23:06.708Z,9.30
2023-05-19T21:25:33.537Z,10.00
2023-05-19T21:28:00.600Z,9.80
2023-05-19T21:30:27.482Z,9.20
2023-05-19T21:32:54.332Z,9.20
2023-05-19T21:35:21.245Z,9.20
2023-05-19T21:37:48.089Z,9.70
2023-05-19T21:40:14.975Z,9.20
2023-05-19T21:42:42.207Z,9.60
2023-05-19T21:45:09.601Z,9.80
2023-05-19T21:47:36.477Z,10.00
2023-05-19T21:50:03.358Z,9.00
2023-05-19T21:52:31.460Z,9.10
2023-05-19T21:54:58.472Z,9.30
2023-05-19T21:57:25.328Z,9.80
2023-05-19T21:59:52.331Z,9.50
2023-05-19T22:02:19.260Z,9.60
2023-05-19T22:04:46.110Z,9.00
2023-05-19T22:07:12.987Z,8.50
2023-05-19T22:09:39.772Z,8.50
2023-05-19T22:12:06.914Z,8.60
2023-05-19T22:14:33.713Z,8.70
2023-05-19T22:17:00.605Z,9.10
2023-05-19T22:19:27.519Z,8.80
2023-05-19T22:22:01.973Z,8.10
2023-05-19T22:24:37.119Z,8.10
2023-05-19T22:27:04.061Z,8.40
2023-05-19T22:29:31.011Z,9.10
2023-05-19T22:31:57.814Z,9.40
2023-05-19T22:34:24.626Z,8.90
2023-05-19T22:36:51.498Z,8.20
2023-05-19T22:39:18.319Z,7.90
2023-05-19T22:41:45.526Z,7.80
2023-05-19T22:44:16.257Z,8.60
2023-05-19T22:46:44.499Z,8.70
2023-05-19T22:49:11.318Z,9.50
2023-05-19T22:51:39.516Z,9.70
2023-05-19T22:54:06.961Z,8.70
2023-05-19T22:56:33.870Z,8.80
2023-05-19T22:59:00.705Z,9.40
2023-05-19T23:01:27.750Z,8.70
2023-05-19T23:03:54.677Z,9.00
2023-05-19T23:06:21.761Z,9.40
2023-05-19T23:08:48.648Z,8.80
2023-05-19T23:11:15.684Z,8.90
2023-05-19T23:13:42.499Z,8.60
2023-05-19T23:16:09.384Z,10.50
2023-05-19T23:18:36.229Z,10.30
2023-05-19T23:21:03.117Z,11.50
2023-05-19T23:23:29.921Z,10.90
2023-05-19T23:25:56.747Z,9.50
2023-05-19T23:28:23.599Z,8.50
2023-05-19T23:30:52.919Z,8.50
2023-05-19T23:33:19.836Z,8.70
2023-05-19T23:35:47.002Z,8.90
2023-05-19T23:38:14.320Z,9.50
2023-05-19T23:40:41.158Z,8.70
2023-05-19T23:43:08.091Z,8.90
2023-05-19T23:45:35.091Z,8.00
2023-05-19T23:48:02.108Z,7.30
2023-05-19T23:50:28.900Z,7.80
2023-05-19T23:52:55.731Z,9.00
2023-05-19T23:55:23.598Z,8.00
2023-05-19T23:57:50.609Z,8.70
